Containerships 6 — DABH — position and weather

sailwx.info

Track history (hours):
 
Tides and Currents Weather Stations Pressure Air Temp Water Temp Dewpoint Dewpoint Depression Visibility Wind Speed Wind Dir Waves Ship Positions

Containerships 6

Last reported at 2015-Apr-19 22:19 UTC. Time now 2015-Apr-19 22:57 UTC.
Position N 55°16' E 014°29'.

Length 155 m; beam 21.8 m; draft 8.9 m.

Type: Ship (hazmat cat A). MMSI: 211315096.

Date/timePositionNaut miles runAvg speedWind from/ knotsBaromVisibWave heightAir tempDewpointWater temp
2015-Apr-19 22:19N 55°16' E 014°29'1418.6
2015-Apr-19 21:33N 55°05' E 014°13'1818.4
2015-Apr-19 20:33N 54°57' E 013°45'1918.9
2015-Apr-19 19:33N 54°50' E 013°13'1818.7
2015-Apr-19 18:33N 54°44' E 012°43'1818.3
2015-Apr-19 17:34N 54°34' E 012°18'1615.9
2015-Apr-19 16:33N 54°25' E 011°55'1818.2
2015-Apr-19 15:33N 54°31' E 011°26'1817.9
2015-Apr-19 14:33N 54°34' E 010°55'1918.4
2015-Apr-19 13:33N 54°31' E 010°24'1212.2
2015-Apr-19 12:33N 54°22' E 010°10'1 1.5
2015-Apr-19 11:33N 54°22' E 010°08'7 7.3
2015-Apr-19 10:33N 54°21' E 009°56'7 7.3
2015-Apr-19 09:33N 54°19' E 009°43'6 5.6
2015-Apr-19 08:29N 54°15' E 009°37'7 7.1
2015-Apr-19 07:33N 54°11' E 009°28'8 6.4
2015-Apr-19 06:20N 54°05' E 009°19'2 3.2
2015-Apr-19 05:33N 54°02' E 009°18'6 6.2
2015-Apr-19 04:33N 53°57' E 009°14'4 4.3
2015-Apr-19 03:33N 53°54' E 009°09'2 1.8
2015-Apr-19 02:33N 53°53' E 009°06'0 0.1
2015-Apr-19 01:32N 53°53' E 009°06'0 0.0
2015-Apr-19 00:33N 53°53' E 009°06'0 0.0
2015-Apr-18 23:33N 53°53' E 009°06'0 0.0
2015-Apr-18 22:33N 53°53' E 009°06'0 0.0
2015-Apr-18 21:33N 53°53' E 009°06'9 9.0
2015-Apr-18 20:33N 53°50' E 008°52'1717.2
2015-Apr-18 19:33N 53°59' E 008°26'1817.5
2015-Apr-18 18:32N 53°58' E 007°56'1818.8
2015-Apr-18 17:33N 53°54' E 007°25'2117.9
2015-Apr-18 16:24N 53°49' E 006°51'2017.3
2015-Apr-18 15:16N 53°44' E 006°19'1217.3
2015-Apr-18 14:33N 53°40' E 005°60'1717.3
2015-Apr-18 13:33N 53°34' E 005°32'1716.8
2015-Apr-18 12:33N 53°29' E 005°05'1616.4
2015-Apr-18 11:33N 53°21' E 004°41'1716.7
2015-Apr-18 10:34N 53°07' E 004°27'3416.8
2015-Apr-18 08:33N 52°37' E 004°01'1616.4
2015-Apr-18 07:33N 52°21' E 003°53'1716.9
2015-Apr-18 06:33N 52°04' E 003°54'1313.3
2015-Apr-18 05:33N 51°57' E 004°12'9 8.7
2015-Apr-18 04:33N 51°53' E 004°24'0 0.4
2015-Apr-18 03:31N 51°53' E 004°25'0 0.0
2015-Apr-18 02:28N 51°53' E 004°25'0 0.0
2015-Apr-18 01:31N 51°53' E 004°25'0 0.0
2015-Apr-18 00:34N 51°53' E 004°25'0 0.0
2015-Apr-17 23:33N 51°53' E 004°25'0 0.0
2015-Apr-17 22:33N 51°53' E 004°25'0 0.0
2015-Apr-17 21:33N 51°53' E 004°25'0 0.0
2015-Apr-17 20:33N 51°53' E 004°25'0 0.0
2015-Apr-17 19:33N 51°53' E 004°25'0 0.0
2015-Apr-17 18:33N 51°53' E 004°25'0 0.0
2015-Apr-17 17:33N 51°53' E 004°25'0 0.0
2015-Apr-17 16:33N 51°53' E 004°25'0 0.0
2015-Apr-17 15:33N 51°53' E 004°25'0 0.0
2015-Apr-17 14:33N 51°53' E 004°25'0 0.0
2015-Apr-17 13:33N 51°53' E 004°25'0 0.0
2015-Apr-17 12:34N 51°53' E 004°25'0 0.0
2015-Apr-17 11:33N 51°53' E 004°25'0 0.0
2015-Apr-17 10:33N 51°53' E 004°25'0 0.0
2015-Apr-17 09:33N 51°53' E 004°25'0 0.2
2015-Apr-17 08:33N 51°53' E 004°25'7 6.9
2015-Apr-17 07:33N 51°55' E 004°14'1313.1
2015-Apr-17 06:34N 51°60' E 003°54'1615.5
2015-Apr-17 05:32N 52°07' E 003°31'4318.8
2015-Apr-17 03:17N 52°31' E 002°34'1418.3
2015-Apr-17 02:32N 52°39' E 002°16'1717.7
2015-Apr-17 01:33N 52°48' E 001°52'1716.5
2015-Apr-17 00:33N 52°59' E 001°31'1716.9
2015-Apr-16 23:33N 53°13' E 001°16'1717.0
2015-Apr-16 22:33N 53°28' E 001°01'1717.0
2015-Apr-16 21:33N 53°42' E 000°46'1717.3
2015-Apr-16 20:33N 53°55' E 000°26'1817.7
2015-Apr-16 19:34N 54°08' E 000°06'1817.7
2015-Apr-16 18:33N 54°21' W 000°14'1818.2
2015-Apr-16 17:33N 54°34' W 000°38'1817.8
2015-Apr-16 16:32N 54°40' W 001°07'4 3.4
2015-Apr-16 15:21N 54°36' W 001°09'0 0.0
2015-Apr-16 14:30N 54°36' W 001°09'0 0.0
2015-Apr-16 13:21N 54°36' W 001°09'0 0.0
2015-Apr-16 12:33N 54°36' W 001°09'0 0.0
2015-Apr-16 11:21N 54°36' W 001°09'0 0.0
2015-Apr-16 10:18N 54°36' W 001°09'0 0.0
2015-Apr-16 09:18N 54°36' W 001°09'0 0.0
2015-Apr-16 08:24N 54°36' W 001°09'0 0.0
2015-Apr-16 07:24N 54°36' W 001°09'0 0.0
2015-Apr-16 06:09N 54°36' W 001°09'1 0.1
2015-Apr-16 00:24N 54°36' W 001°09'1112.4
2015-Apr-15 23:33N 54°44' W 000°57'1918.9
2015-Apr-15 22:33N 54°52' W 000°28'1919.3
2015-Apr-15 21:33N 55°01' E 000°02'1919.4
2015-Apr-15 20:33N 55°10' E 000°32'35218.3
2015-Apr-15 01:17N 57°43' E 010°05'1216.8
2015-Apr-15 00:33N 57°47' E 010°27'1514.9
2015-Apr-14 23:34N 57°44' E 010°55'1818.1
2015-Apr-14 22:33N 57°32' E 011°20'1818.4
2015-Apr-14 21:33N 57°16' E 011°35'1918.7
2015-Apr-14 20:33N 56°58' E 011°46'1717.1
2015-Apr-14 19:33N 56°41' E 011°51'5718.6
2015-Apr-14 16:30N 55°54' E 010°55'7615.4
2015-Apr-14 11:33N 54°37' E 011°07'1717.3
2015-Apr-14 10:33N 54°29' E 011°34'1716.8
2015-Apr-14 09:34N 54°26' E 012°02'1615.5
2015-Apr-14 08:33N 54°38' E 012°18'1917.9
2015-Apr-14 07:31N 54°48' E 012°46'1818.5
2015-Apr-14 06:33N 54°54' E 013°15'1918.3
2015-Apr-14 05:32N 55°00' E 013°45'2217.7
2015-Apr-14 04:19N 55°13' E 014°17'38818.5
2015-Apr-13 07:20N 59°35' E 023°06'1518.5
2015-Apr-13 06:33N 59°40' E 023°34'1918.6
2015-Apr-13 05:33N 59°45' E 024°09'7418.6
2015-Apr-13 01:33N 60°01' E 026°33'1917.8
2015-Apr-13 00:30N 60°02' E 027°11'7615.3
2015-Apr-12 19:33N 59°59' E 029°43'1 0.2
2015-Apr-12 15:33N 60°00' E 029°43'0 0.0
2015-Apr-12 14:32N 60°00' E 029°43'0 0.0
2015-Apr-12 13:33N 60°00' E 029°43'0 0.0
2015-Apr-12 12:33N 60°00' E 029°43'0 0.0
2015-Apr-12 11:32N 60°00' E 029°43'0 0.0
2015-Apr-12 10:33N 60°00' E 029°43'0 0.0
2015-Apr-12 09:33N 60°00' E 029°43'0 0.0
2015-Apr-12 08:31N 60°00' E 029°43'0 0.0
2015-Apr-12 07:32N 60°00' E 029°43'0 0.0
2015-Apr-12 06:19N 60°00' E 029°43'0 0.0
2015-Apr-12 05:23N 60°00' E 029°43'1 1.4
2015-Apr-12 04:33N 59°59' E 029°43'10 9.4
2015-Apr-12 03:33N 60°01' E 029°24'6410.6
2015-Apr-11 21:33N 60°02' E 027°17'1514.7
2015-Apr-11 20:32N 59°59' E 026°48'1515.4
2015-Apr-11 19:33N 59°56' E 026°18'3511.6
2015-Apr-11 16:31N 60°08' E 025°12'5 5.5
2015-Apr-11 15:33N 60°13' E 025°12'0 0.0
2015-Apr-11 14:33N 60°13' E 025°12'0 0.0
2015-Apr-11 13:33N 60°13' E 025°12'0 0.0
2015-Apr-11 12:33N 60°13' E 025°12'0 0.0
2015-Apr-11 11:33N 60°13' E 025°12'0 0.0
2015-Apr-11 10:34N 60°13' E 025°12'0 0.0
2015-Apr-11 09:34N 60°13' E 025°12'0 0.0
2015-Apr-11 08:33N 60°13' E 025°12'0 0.0
2015-Apr-11 07:34N 60°13' E 025°12'0 0.0
2015-Apr-11 06:33N 60°13' E 025°12'4 4.1
2015-Apr-11 05:33N 60°09' E 025°12'3216.0
2015-Apr-11 03:34N 59°44' E 024°31'1818.0
2015-Apr-11 02:33N 59°38' E 023°57'1817.7
2015-Apr-11 01:33N 59°32' E 023°24'32518.1
2015-Apr-10 07:33N 55°49' E 016°00'1918.5
2015-Apr-10 06:33N 55°40' E 015°32'1818.4
2015-Apr-10 05:33N 55°31' E 015°04'1918.6
2015-Apr-10 04:33N 55°22' E 014°35'1918.8
2015-Apr-10 03:33N 55°07' E 014°14'1818.1
2015-Apr-10 02:33N 54°58' E 013°47'1918.8
2015-Apr-10 01:33N 54°51' E 013°17'1918.5
2015-Apr-10 00:33N 54°45' E 012°46'1717.2
2015-Apr-09 23:33N 54°36' E 012°21'1515.4
2015-Apr-09 22:33N 54°24' E 012°04'  
Track history (hours):
 
Tides and Currents Weather Stations Pressure Air Temp Water Temp Dewpoint Dewpoint Depression Visibility Wind Speed Wind Dir Waves Ship Positions

Containerships 6

Last reported at 2015-Apr-19 22:19 UTC. Time now 2015-Apr-19 22:57 UTC.
Position N 55°16' E 014°29'.

Length 155 m; beam 21.8 m; draft 8.9 m.

Type: Ship (hazmat cat A). MMSI: 211315096.

Date/timePositionNaut miles runAvg speedWind from/ knotsBaromVisibWave heightAir tempDewpointWater temp
2015-Apr-19 22:19N 55°16' E 014°29'1418.6
2015-Apr-19 21:33N 55°05' E 014°13'1818.4
2015-Apr-19 20:33N 54°57' E 013°45'1918.9
2015-Apr-19 19:33N 54°50' E 013°13'1818.7
2015-Apr-19 18:33N 54°44' E 012°43'1818.3
2015-Apr-19 17:34N 54°34' E 012°18'1615.9
2015-Apr-19 16:33N 54°25' E 011°55'1818.2
2015-Apr-19 15:33N 54°31' E 011°26'1817.9
2015-Apr-19 14:33N 54°34' E 010°55'1918.4
2015-Apr-19 13:33N 54°31' E 010°24'1212.2
2015-Apr-19 12:33N 54°22' E 010°10'1 1.5
2015-Apr-19 11:33N 54°22' E 010°08'7 7.3
2015-Apr-19 10:33N 54°21' E 009°56'7 7.3
2015-Apr-19 09:33N 54°19' E 009°43'6 5.6
2015-Apr-19 08:29N 54°15' E 009°37'7 7.1
2015-Apr-19 07:33N 54°11' E 009°28'8 6.4
2015-Apr-19 06:20N 54°05' E 009°19'2 3.2
2015-Apr-19 05:33N 54°02' E 009°18'6 6.2
2015-Apr-19 04:33N 53°57' E 009°14'4 4.3
2015-Apr-19 03:33N 53°54' E 009°09'2 1.8
2015-Apr-19 02:33N 53°53' E 009°06'0 0.1
2015-Apr-19 01:32N 53°53' E 009°06'0 0.0
2015-Apr-19 00:33N 53°53' E 009°06'0 0.0
2015-Apr-18 23:33N 53°53' E 009°06'0 0.0
2015-Apr-18 22:33N 53°53' E 009°06'0 0.0
2015-Apr-18 21:33N 53°53' E 009°06'9 9.0
2015-Apr-18 20:33N 53°50' E 008°52'1717.2
2015-Apr-18 19:33N 53°59' E 008°26'1817.5
2015-Apr-18 18:32N 53°58' E 007°56'1818.8
2015-Apr-18 17:33N 53°54' E 007°25'2117.9
2015-Apr-18 16:24N 53°49' E 006°51'2017.3
2015-Apr-18 15:16N 53°44' E 006°19'1217.3
2015-Apr-18 14:33N 53°40' E 005°60'1717.3
2015-Apr-18 13:33N 53°34' E 005°32'1716.8
2015-Apr-18 12:33N 53°29' E 005°05'1616.4
2015-Apr-18 11:33N 53°21' E 004°41'1716.7
2015-Apr-18 10:34N 53°07' E 004°27'3416.8
2015-Apr-18 08:33N 52°37' E 004°01'1616.4
2015-Apr-18 07:33N 52°21' E 003°53'1716.9
2015-Apr-18 06:33N 52°04' E 003°54'1313.3
2015-Apr-18 05:33N 51°57' E 004°12'9 8.7
2015-Apr-18 04:33N 51°53' E 004°24'0 0.4
2015-Apr-18 03:31N 51°53' E 004°25'0 0.0
2015-Apr-18 02:28N 51°53' E 004°25'0 0.0
2015-Apr-18 01:31N 51°53' E 004°25'0 0.0
2015-Apr-18 00:34N 51°53' E 004°25'0 0.0
2015-Apr-17 23:33N 51°53' E 004°25'0 0.0
2015-Apr-17 22:33N 51°53' E 004°25'0 0.0
2015-Apr-17 21:33N 51°53' E 004°25'0 0.0
2015-Apr-17 20:33N 51°53' E 004°25'0 0.0
2015-Apr-17 19:33N 51°53' E 004°25'0 0.0
2015-Apr-17 18:33N 51°53' E 004°25'0 0.0
2015-Apr-17 17:33N 51°53' E 004°25'0 0.0
2015-Apr-17 16:33N 51°53' E 004°25'0 0.0
2015-Apr-17 15:33N 51°53' E 004°25'0 0.0
2015-Apr-17 14:33N 51°53' E 004°25'0 0.0
2015-Apr-17 13:33N 51°53' E 004°25'0 0.0
2015-Apr-17 12:34N 51°53' E 004°25'0 0.0
2015-Apr-17 11:33N 51°53' E 004°25'0 0.0
2015-Apr-17 10:33N 51°53' E 004°25'0 0.0
2015-Apr-17 09:33N 51°53' E 004°25'0 0.2
2015-Apr-17 08:33N 51°53' E 004°25'7 6.9
2015-Apr-17 07:33N 51°55' E 004°14'1313.1
2015-Apr-17 06:34N 51°60' E 003°54'1615.5
2015-Apr-17 05:32N 52°07' E 003°31'4318.8
2015-Apr-17 03:17N 52°31' E 002°34'1418.3
2015-Apr-17 02:32N 52°39' E 002°16'1717.7
2015-Apr-17 01:33N 52°48' E 001°52'1716.5
2015-Apr-17 00:33N 52°59' E 001°31'1716.9
2015-Apr-16 23:33N 53°13' E 001°16'1717.0
2015-Apr-16 22:33N 53°28' E 001°01'1717.0
2015-Apr-16 21:33N 53°42' E 000°46'1717.3
2015-Apr-16 20:33N 53°55' E 000°26'1817.7
2015-Apr-16 19:34N 54°08' E 000°06'1817.7
2015-Apr-16 18:33N 54°21' W 000°14'1818.2
2015-Apr-16 17:33N 54°34' W 000°38'1817.8
2015-Apr-16 16:32N 54°40' W 001°07'4 3.4
2015-Apr-16 15:21N 54°36' W 001°09'0 0.0
2015-Apr-16 14:30N 54°36' W 001°09'0 0.0
2015-Apr-16 13:21N 54°36' W 001°09'0 0.0
2015-Apr-16 12:33N 54°36' W 001°09'0 0.0
2015-Apr-16 11:21N 54°36' W 001°09'0 0.0
2015-Apr-16 10:18N 54°36' W 001°09'0 0.0
2015-Apr-16 09:18N 54°36' W 001°09'0 0.0
2015-Apr-16 08:24N 54°36' W 001°09'0 0.0
2015-Apr-16 07:24N 54°36' W 001°09'0 0.0
2015-Apr-16 06:09N 54°36' W 001°09'1 0.1
2015-Apr-16 00:24N 54°36' W 001°09'1112.4
2015-Apr-15 23:33N 54°44' W 000°57'1918.9
2015-Apr-15 22:33N 54°52' W 000°28'1919.3
2015-Apr-15 21:33N 55°01' E 000°02'1919.4
2015-Apr-15 20:33N 55°10' E 000°32'35218.3
2015-Apr-15 01:17N 57°43' E 010°05'1216.8
2015-Apr-15 00:33N 57°47' E 010°27'1514.9
2015-Apr-14 23:34N 57°44' E 010°55'1818.1
2015-Apr-14 22:33N 57°32' E 011°20'1818.4
2015-Apr-14 21:33N 57°16' E 011°35'1918.7
2015-Apr-14 20:33N 56°58' E 011°46'1717.1
2015-Apr-14 19:33N 56°41' E 011°51'5718.6
2015-Apr-14 16:30N 55°54' E 010°55'7615.4
2015-Apr-14 11:33N 54°37' E 011°07'1717.3
2015-Apr-14 10:33N 54°29' E 011°34'1716.8
2015-Apr-14 09:34N 54°26' E 012°02'1615.5
2015-Apr-14 08:33N 54°38' E 012°18'1917.9
2015-Apr-14 07:31N 54°48' E 012°46'1818.5
2015-Apr-14 06:33N 54°54' E 013°15'1918.3
2015-Apr-14 05:32N 55°00' E 013°45'2217.7
2015-Apr-14 04:19N 55°13' E 014°17'38818.5
2015-Apr-13 07:20N 59°35' E 023°06'1518.5
2015-Apr-13 06:33N 59°40' E 023°34'1918.6
2015-Apr-13 05:33N 59°45' E 024°09'7418.6
2015-Apr-13 01:33N 60°01' E 026°33'1917.8
2015-Apr-13 00:30N 60°02' E 027°11'7615.3
2015-Apr-12 19:33N 59°59' E 029°43'1 0.2
2015-Apr-12 15:33N 60°00' E 029°43'0 0.0
2015-Apr-12 14:32N 60°00' E 029°43'0 0.0
2015-Apr-12 13:33N 60°00' E 029°43'0 0.0
2015-Apr-12 12:33N 60°00' E 029°43'0 0.0
2015-Apr-12 11:32N 60°00' E 029°43'0 0.0
2015-Apr-12 10:33N 60°00' E 029°43'0 0.0
2015-Apr-12 09:33N 60°00' E 029°43'0 0.0
2015-Apr-12 08:31N 60°00' E 029°43'0 0.0
2015-Apr-12 07:32N 60°00' E 029°43'0 0.0
2015-Apr-12 06:19N 60°00' E 029°43'0 0.0
2015-Apr-12 05:23N 60°00' E 029°43'1 1.4
2015-Apr-12 04:33N 59°59' E 029°43'10 9.4
2015-Apr-12 03:33N 60°01' E 029°24'6410.6
2015-Apr-11 21:33N 60°02' E 027°17'1514.7
2015-Apr-11 20:32N 59°59' E 026°48'1515.4
2015-Apr-11 19:33N 59°56' E 026°18'3511.6
2015-Apr-11 16:31N 60°08' E 025°12'5 5.5
2015-Apr-11 15:33N 60°13' E 025°12'0 0.0
2015-Apr-11 14:33N 60°13' E 025°12'0 0.0
2015-Apr-11 13:33N 60°13' E 025°12'0 0.0
2015-Apr-11 12:33N 60°13' E 025°12'0 0.0
2015-Apr-11 11:33N 60°13' E 025°12'0 0.0
2015-Apr-11 10:34N 60°13' E 025°12'0 0.0
2015-Apr-11 09:34N 60°13' E 025°12'0 0.0
2015-Apr-11 08:33N 60°13' E 025°12'0 0.0
2015-Apr-11 07:34N 60°13' E 025°12'0 0.0
2015-Apr-11 06:33N 60°13' E 025°12'4 4.1
2015-Apr-11 05:33N 60°09' E 025°12'3216.0
2015-Apr-11 03:34N 59°44' E 024°31'1818.0
2015-Apr-11 02:33N 59°38' E 023°57'1817.7
2015-Apr-11 01:33N 59°32' E 023°24'32518.1
2015-Apr-10 07:33N 55°49' E 016°00'1918.5
2015-Apr-10 06:33N 55°40' E 015°32'1818.4
2015-Apr-10 05:33N 55°31' E 015°04'1918.6
2015-Apr-10 04:33N 55°22' E 014°35'1918.8
2015-Apr-10 03:33N 55°07' E 014°14'1818.1
2015-Apr-10 02:33N 54°58' E 013°47'1918.8
2015-Apr-10 01:33N 54°51' E 013°17'1918.5
2015-Apr-10 00:33N 54°45' E 012°46'1717.2
2015-Apr-09 23:33N 54°36' E 012°21'1515.4
2015-Apr-09 22:33N 54°24' E 012°04'  

Dump ship's entire track history